Time;durP1;ratioP1;P1;durP2;ratioP2;P2;SDS_P1;SDS_P2;PMS_P1;PMS_P2;Temp;Humidity;BMP_temperature;BMP_pressure;BME280_temperature;BME280_humidity;BME280_pressure;Samples;Min_cycle;Max_cycle;Signal;HPM_P1;HPM_P2
2021/10/05 04:02:40;;;;;;;4.63;4.10;;;9.40;96.30;;;;;;4954423;29;20559;-78
2021/10/05 04:05:06;;;;;;;6.13;4.50;;;9.40;96.30;;;;;;4957800;28;20450;-76
2021/10/05 04:07:32;;;;;;;5.80;5.20;;;9.50;96.30;;;;;;4955777;28;20665;-77
2021/10/05 04:09:57;;;;;;;6.97;4.50;;;9.50;96.30;;;;;;4956242;29;20410;-76
2021/10/05 04:12:23;;;;;;;4.70;4.20;;;9.50;96.30;;;;;;4955604;28;20305;-79
2021/10/05 04:14:50;;;;;;;5.40;4.23;;;9.60;96.30;;;;;;4957347;28;20183;-76
2021/10/05 04:17:17;;;;;;;6.57;4.60;;;9.60;96.30;;;;;;4957674;28;20198;-79
2021/10/05 04:19:42;;;;;;;7.00;4.30;;;9.60;96.30;;;;;;4958426;28;20437;-76
2021/10/05 04:22:08;;;;;;;4.67;4.13;;;9.70;96.30;;;;;;4955869;28;20442;-76
2021/10/05 04:24:33;;;;;;;6.13;4.97;;;9.70;96.30;;;;;;4956830;29;20257;-78
2021/10/05 04:26:59;;;;;;;4.40;3.93;;;9.70;96.30;;;;;;4956852;29;20202;-76
2021/10/05 04:29:24;;;;;;;5.50;4.90;;;9.70;96.30;;;;;;4955447;29;20262;-75
2021/10/05 04:31:50;;;;;;;4.50;3.70;;;9.70;96.30;;;;;;4955543;29;20210;-77
2021/10/05 04:34:15;;;;;;;6.50;5.07;;;9.70;96.30;;;;;;4956991;29;20641;-75
2021/10/05 04:36:41;;;;;;;4.47;3.90;;;9.70;96.30;;;;;;4955274;29;20815;-75
2021/10/05 04:39:06;;;;;;;4.63;4.23;;;9.70;96.30;;;;;;4955499;29;20566;-76
2021/10/05 04:41:32;;;;;;;4.90;4.40;;;9.70;96.30;;;;;;4955863;28;20202;-78
2021/10/05 04:43:57;;;;;;;4.23;3.83;;;9.80;96.30;;;;;;4956284;28;20182;-75
2021/10/05 04:46:23;;;;;;;5.67;4.53;;;9.80;96.30;;;;;;4956426;28;20834;-76
2021/10/05 04:48:48;;;;;;;5.07;4.30;;;9.70;96.30;;;;;;4956082;28;20178;-76
2021/10/05 04:51:14;;;;;;;7.63;4.23;;;9.60;96.30;;;;;;4955288;28;20695;-78
2021/10/05 04:53:39;;;;;;;5.77;4.43;;;9.70;96.30;;;;;;4955930;28;20179;-75
2021/10/05 04:56:05;;;;;;;4.97;3.80;;;9.70;96.30;;;;;;4954536;29;20182;-75
2021/10/05 04:58:30;;;;;;;8.60;4.70;;;9.70;96.30;;;;;;4955714;28;20257;-78
2021/10/05 05:00:56;;;;;;;41.43;22.97;;;9.70;96.30;;;;;;4955412;28;20686;-76
2021/10/05 05:03:23;;;;;;;205.00;79.63;;;9.70;96.30;;;;;;4954476;29;20564;-76
2021/10/05 05:05:49;;;;;;;81.27;34.30;;;9.70;96.30;;;;;;4954288;28;20241;-77
2021/10/05 05:08:14;;;;;;;9.90;6.10;;;9.80;96.30;;;;;;4963084;28;20803;-77
2021/10/05 05:10:40;;;;;;;8.10;5.57;;;9.70;96.30;;;;;;4954041;29;20195;-77
2021/10/05 05:13:05;;;;;;;7.30;4.93;;;9.80;96.30;;;;;;4953363;29;20202;-77
2021/10/05 05:15:30;;;;;;;13.17;7.90;;;9.80;96.30;;;;;;4957936;28;20198;-78
2021/10/05 05:17:56;;;;;;;9.10;6.10;;;9.80;96.30;;;;;;4960197;29;20214;-78
2021/10/05 05:20:22;;;;;;;10.63;5.67;;;9.90;96.30;;;;;;4958485;28;20281;-78
2021/10/05 05:22:48;;;;;;;10.33;5.43;;;9.90;96.30;;;;;;4958433;28;20265;-78
2021/10/05 05:25:13;;;;;;;11.10;6.47;;;9.90;96.30;;;;;;4959662;28;20501;-78
2021/10/05 05:27:39;;;;;;;7.67;5.67;;;9.90;96.30;;;;;;4959129;29;20183;-80
2021/10/05 05:30:06;;;;;;;10.80;5.77;;;9.90;96.30;;;;;;4964601;28;20827;-81
2021/10/05 05:32:31;;;;;;;6.20;5.30;;;10.00;96.30;;;;;;4960522;28;20474;-80
2021/10/05 05:34:57;;;;;;;14.27;7.10;;;10.00;96.30;;;;;;4955686;28;20430;-81
2021/10/05 05:37:22;;;;;;;33.90;17.30;;;10.00;96.30;;;;;;4950940;28;20168;-80
2021/10/05 05:39:48;;;;;;;27.67;15.67;;;10.10;96.30;;;;;;4936206;29;20540;-81
2021/10/05 05:42:13;;;;;;;18.90;8.80;;;10.10;96.30;;;;;;4934627;29;20569;-79
2021/10/05 05:44:39;;;;;;;10.20;7.70;;;10.20;96.30;;;;;;4943677;29;20187;-76
2021/10/05 05:47:05;;;;;;;13.90;8.20;;;10.30;96.30;;;;;;4955106;28;20736;-77
2021/10/05 05:49:31;;;;;;;18.10;11.10;;;10.40;96.30;;;;;;4957749;28;20201;-77
2021/10/05 05:51:57;;;;;;;13.13;8.73;;;10.50;96.30;;;;;;4956117;28;20466;-80
2021/10/05 05:54:22;;;;;;;15.17;7.80;;;10.60;96.30;;;;;;4953724;29;20473;-80
2021/10/05 05:56:48;;;;;;;12.57;8.13;;;10.70;96.30;;;;;;4954185;28;20182;-82
2021/10/05 05:59:14;;;;;;;8.70;5.13;;;10.70;96.30;;;;;;4955027;28;20171;-80
2021/10/05 06:01:40;;;;;;;11.00;4.40;;;10.70;96.30;;;;;;4953936;28;20215;-80
2021/10/05 06:04:06;;;;;;;8.10;4.60;;;10.70;96.30;;;;;;4953458;29;20831;-82
2021/10/05 06:06:32;;;;;;;6.47;4.60;;;10.60;96.30;;;;;;4955339;28;20217;-82
2021/10/05 06:09:00;;;;;;;7.40;5.60;;;10.50;96.30;;;;;;4954811;28;20178;-82
2021/10/05 06:11:30;;;;;;;6.80;4.87;;;10.50;96.30;;;;;;4952554;28;20458;-82
2021/10/05 06:13:56;;;;;;;5.70;4.73;;;10.60;96.30;;;;;;4954611;28;20938;-82
2021/10/05 06:16:21;;;;;;;19.53;6.00;;;10.60;96.30;;;;;;4953478;29;20527;-81
2021/10/05 06:18:47;;;;;;;30.10;13.57;;;10.60;96.30;;;;;;4953395;29;20174;-81
2021/10/05 06:21:13;;;;;;;105.67;51.67;;;10.60;96.30;;;;;;4954059;28;20198;-82
2021/10/05 06:23:38;;;;;;;90.60;43.97;;;10.60;96.30;;;;;;4953323;28;20221;-82
2021/10/05 06:26:04;;;;;;;56.83;24.97;;;10.60;96.30;;;;;;4953517;29;20643;-82
2021/10/05 06:28:30;;;;;;;18.70;9.10;;;10.50;96.30;;;;;;4954832;28;20610;-82
2021/10/05 06:30:56;;;;;;;10.13;7.47;;;10.50;96.30;;;;;;4953004;28;20194;-80
2021/10/05 06:33:21;;;;;;;8.20;6.63;;;10.50;96.30;;;;;;4953253;29;20175;-81
2021/10/05 06:35:47;;;;;;;7.80;6.10;;;10.50;96.30;;;;;;4953648;29;20187;-82
2021/10/05 06:38:16;;;;;;;11.40;6.70;;;10.50;96.30;;;;;;4959310;28;20254;-81
2021/10/05 06:40:42;;;;;;;8.40;6.13;;;10.50;96.30;;;;;;4954035;29;20538;-82
2021/10/05 06:43:09;;;;;;;9.50;7.63;;;10.50;96.30;;;;;;4953449;29;20425;-81
2021/10/05 06:45:35;;;;;;;10.33;5.80;;;10.50;96.30;;;;;;4954567;29;20505;-81
2021/10/05 06:48:01;;;;;;;9.60;6.30;;;10.50;96.30;;;;;;4955264;28;20430;-82
2021/10/05 06:50:27;;;;;;;13.50;7.20;;;10.60;96.30;;;;;;4956049;28;20422;-82
2021/10/05 06:52:53;;;;;;;12.13;8.00;;;10.50;96.30;;;;;;4953365;29;20206;-82
2021/10/05 06:55:19;;;;;;;11.07;7.50;;;10.60;96.30;;;;;;4955362;28;20179;-81
2021/10/05 06:57:45;;;;;;;15.27;7.30;;;10.60;96.30;;;;;;4953629;29;20461;-81
2021/10/05 07:00:14;;;;;;;12.33;8.77;;;10.70;96.30;;;;;;4954221;29;20414;-81
2021/10/05 07:02:42;;;;;;;8.90;6.80;;;10.70;96.30;;;;;;4953715;29;20971;-81
2021/10/05 07:05:09;;;;;;;11.47;6.90;;;10.70;96.30;;;;;;4954510;29;20425;-81
2021/10/05 07:07:42;;;;;;;9.20;6.20;;;10.80;96.30;;;;;;4953799;29;20422;-81
2021/10/05 07:10:09;;;;;;;11.90;6.73;;;10.80;96.30;;;;;;4953551;29;20509;-81
2021/10/05 07:12:35;;;;;;;8.97;6.97;;;10.90;96.30;;;;;;4953061;28;20559;-81
2021/10/05 07:15:02;;;;;;;10.73;6.63;;;10.90;96.30;;;;;;4956723;29;20891;-81
2021/10/05 07:17:28;;;;;;;11.20;6.90;;;10.90;96.30;;;;;;4959397;28;20182;-81
2021/10/05 07:19:53;;;;;;;9.87;7.03;;;11.00;96.30;;;;;;4959228;28;20766;-81
2021/10/05 07:22:19;;;;;;;11.47;7.10;;;11.00;96.30;;;;;;4958845;28;20194;-81
2021/10/05 07:24:44;;;;;;;11.03;7.07;;;11.00;96.30;;;;;;4959536;28;20258;-81
2021/10/05 07:27:10;;;;;;;7.77;6.90;;;11.10;96.30;;;;;;4957829;29;20179;-81
2021/10/05 07:29:36;;;;;;;8.60;7.17;;;11.20;96.30;;;;;;4959474;28;20671;-81
2021/10/05 07:32:02;;;;;;;9.30;7.00;;;11.30;96.30;;;;;;4958956;28;20241;-80
2021/10/05 07:34:27;;;;;;;10.97;6.90;;;11.40;96.30;;;;;;4957485;29;20258;-80
2021/10/05 07:36:53;;;;;;;11.60;8.33;;;11.40;96.30;;;;;;4959494;28;20830;-81
2021/10/05 07:39:18;;;;;;;10.87;8.57;;;11.50;96.30;;;;;;4959268;28;20643;-81
2021/10/05 07:41:44;;;;;;;11.47;8.23;;;11.50;96.30;;;;;;4958672;28;20195;-81
2021/10/05 07:44:11;;;;;;;9.83;7.30;;;11.60;96.30;;;;;;4959047;28;20183;-81
2021/10/05 07:46:37;;;;;;;11.90;6.83;;;11.60;96.30;;;;;;4958284;29;20290;-81
2021/10/05 07:49:03;;;;;;;10.70;8.00;;;11.80;96.30;;;;;;4957909;28;20509;-81
2021/10/05 07:51:29;;;;;;;14.50;8.57;;;11.80;96.30;;;;;;4958550;28;20497;-81
2021/10/05 07:53:54;;;;;;;10.07;7.90;;;11.90;96.30;;;;;;4958823;28;20168;-81
2021/10/05 07:56:20;;;;;;;15.57;8.30;;;12.00;96.30;;;;;;4958261;29;20175;-81
2021/10/05 07:58:45;;;;;;;8.37;7.50;;;12.10;96.30;;;;;;4959952;28;20183;-81
2021/10/05 08:01:11;;;;;;;11.63;8.60;;;12.20;96.30;;;;;;4957426;29;20270;-81
2021/10/05 08:03:36;;;;;;;14.60;8.70;;;12.30;96.30;;;;;;4959851;28;20179;-81
2021/10/05 08:06:02;;;;;;;11.40;9.40;;;12.40;96.30;;;;;;4958554;29;20167;-80
2021/10/05 08:08:28;;;;;;;17.10;11.13;;;12.50;96.30;;;;;;4959630;28;20238;-81
2021/10/05 08:10:54;;;;;;;15.20;10.90;;;12.70;96.30;;;;;;4959320;28;20195;-81
2021/10/05 08:13:20;;;;;;;19.40;8.93;;;12.80;96.30;;;;;;4958568;28;20777;-81
2021/10/05 08:15:45;;;;;;;14.70;10.70;;;12.80;96.30;;;;;;4958101;29;20179;-80
2021/10/05 08:18:11;;;;;;;11.97;9.40;;;12.90;96.30;;;;;;4959045;28;20191;-81
2021/10/05 08:20:37;;;;;;;20.27;9.37;;;13.00;96.30;;;;;;4957888;28;20250;-80
2021/10/05 08:23:03;;;;;;;15.63;10.50;;;13.00;96.30;;;;;;4956752;29;20183;-80
2021/10/05 08:25:28;;;;;;;15.87;10.73;;;13.00;96.30;;;;;;4956605;28;20506;-81
2021/10/05 08:27:54;;;;;;;25.83;11.17;;;13.10;96.30;;;;;;4957263;28;20419;-80
2021/10/05 08:30:20;;;;;;;15.70;9.53;;;13.20;96.30;;;;;;4958583;28;20183;-80
2021/10/05 08:32:46;;;;;;;12.63;9.83;;;13.20;96.30;;;;;;4957690;28;20634;-80
2021/10/05 08:35:13;;;;;;;18.23;10.70;;;13.20;96.30;;;;;;4956780;29;20410;-81
2021/10/05 08:37:40;;;;;;;17.60;12.27;;;13.20;96.30;;;;;;4957833;28;20186;-79
2021/10/05 08:40:08;;;;;;;20.00;14.00;;;13.30;96.30;;;;;;4957724;28;20406;-80
2021/10/05 08:42:34;;;;;;;24.40;17.13;;;13.40;96.30;;;;;;4957826;28;20438;-80
2021/10/05 08:45:00;;;;;;;22.70;17.07;;;13.50;96.30;;;;;;4957041;28;20782;-80
2021/10/05 08:47:25;;;;;;;20.93;16.30;;;13.50;96.30;;;;;;4957415;28;20167;-81
2021/10/05 08:49:51;;;;;;;26.73;20.03;;;13.50;96.30;;;;;;4957456;28;20258;-79
2021/10/05 08:52:17;;;;;;;22.17;18.57;;;13.50;96.30;;;;;;4955372;28;20234;-79
2021/10/05 08:54:43;;;;;;;22.93;17.93;;;13.60;96.30;;;;;;4956002;28;20270;-79
2021/10/05 08:57:09;;;;;;;27.57;19.17;;;13.70;96.30;;;;;;4956580;28;20527;-79
2021/10/05 08:59:34;;;;;;;21.73;19.40;;;13.80;96.30;;;;;;4942647;28;20498;-80
2021/10/05 09:02:11;;;;;;;27.50;22.20;;;13.80;96.30;;;;;;4944566;28;20214;-79
2021/10/05 09:04:36;;;;;;;38.13;22.27;;;13.80;96.30;;;;;;4939304;29;20183;-79
2021/10/05 09:07:13;;;;;;;26.67;21.13;;;13.90;96.30;;;;;;4936012;29;20490;-79
2021/10/05 09:09:53;;;;;;;31.60;22.17;;;13.90;96.30;;;;;;4937356;29;20239;-79
2021/10/05 09:12:36;;;;;;;27.00;21.67;;;13.90;96.30;;;;;;4936223;29;20498;-79
2021/10/05 09:15:07;;;;;;;25.30;21.00;;;13.90;96.30;;;;;;4937343;29;20510;-79
2021/10/05 09:17:32;;;;;;;38.00;23.37;;;13.90;96.30;;;;;;4938065;29;20403;-80
2021/10/05 09:19:58;;;;;;;27.57;21.10;;;13.90;96.30;;;;;;4937734;29;20408;-80
2021/10/05 09:22:29;;;;;;;32.57;21.90;;;13.80;96.30;;;;;;4936234;29;20199;-79
2021/10/05 09:24:59;;;;;;;33.53;21.90;;;13.90;96.30;;;;;;4954325;29;20204;-79
2021/10/05 09:27:26;;;;;;;34.33;21.93;;;13.90;96.30;;;;;;4956963;28;21075;-79
2021/10/05 09:29:53;;;;;;;31.10;22.53;;;13.90;96.30;;;;;;4941335;28;20423;-79
2021/10/05 09:32:23;;;;;;;32.20;22.30;;;14.00;96.30;;;;;;4942205;29;20473;-79
2021/10/05 09:34:56;;;;;;;27.73;21.80;;;14.40;96.30;;;;;;4955219;28;20414;-79
2021/10/05 09:37:31;;;;;;;26.00;21.50;;;14.70;96.30;;;;;;4948664;28;20409;-79
2021/10/05 09:40:13;;;;;;;31.67;21.90;;;14.80;96.30;;;;;;4934812;29;20419;-79
2021/10/05 09:42:40;;;;;;;32.23;21.53;;;15.10;96.30;;;;;;4954995;29;20418;-79
2021/10/05 09:45:09;;;;;;;25.53;20.37;;;15.40;96.30;;;;;;4954556;29;20426;-80
2021/10/05 09:47:37;;;;;;;24.97;20.63;;;15.50;96.30;;;;;;4956134;28;20497;-79
2021/10/05 09:50:21;;;;;;;24.67;19.87;;;15.40;96.30;;;;;;4954799;28;20474;-79
2021/10/05 09:52:49;;;;;;;24.60;19.23;;;15.40;96.30;;;;;;4954312;28;20450;-79
2021/10/05 09:55:16;;;;;;;29.60;21.77;;;15.40;96.30;;;;;;4954580;28;20422;-79
2021/10/05 09:57:42;;;;;;;32.23;19.97;;;15.40;96.30;;;;;;4954679;28;20502;-79
2021/10/05 10:00:10;;;;;;;25.00;20.33;;;15.30;96.30;;;;;;4955425;28;20493;-80
2021/10/05 10:02:37;;;;;;;30.10;21.30;;;15.20;96.30;;;;;;4936203;29;20218;-80
2021/10/05 10:05:06;;;;;;;25.23;20.20;;;15.10;96.30;;;;;;4937539;29;20423;-81
2021/10/05 10:07:35;;;;;;;26.50;20.90;;;15.00;96.30;;;;;;4937918;29;20454;-81
2021/10/05 10:10:00;;;;;;;32.20;21.10;;;14.90;96.30;;;;;;4938119;29;20912;-81
2021/10/05 10:12:26;;;;;;;27.20;20.37;;;14.90;96.30;;;;;;4940744;29;20462;-82
2021/10/05 10:14:53;;;;;;;28.70;19.73;;;15.00;96.30;;;;;;4955091;28;20202;-80
2021/10/05 10:17:25;;;;;;;22.70;19.70;;;15.00;96.30;;;;;;4955643;28;20686;-80
2021/10/05 10:19:51;;;;;;;27.60;21.47;;;15.00;96.30;;;;;;4954198;28;20426;-77
2021/10/05 10:22:17;;;;;;;23.87;20.37;;;15.10;96.30;;;;;;4953838;29;20441;-78
2021/10/05 10:24:44;;;;;;;25.30;20.57;;;15.20;96.30;;;;;;4954633;28;20183;-80
2021/10/05 10:27:10;;;;;;;27.63;19.20;;;15.30;96.30;;;;;;4954923;28;20174;-80
2021/10/05 10:29:35;;;;;;;26.80;20.60;;;15.10;96.30;;;;;;4956557;28;20446;-81
2021/10/05 10:32:19;;;;;;;23.00;18.30;;;15.00;96.30;;;;;;4954375;28;20834;-81
2021/10/05 10:34:46;;;;;;;30.37;19.17;;;14.80;96.30;;;;;;4950388;29;20216;-81
2021/10/05 10:37:15;;;;;;;26.93;17.47;;;14.80;96.30;;;;;;4954611;28;20482;-80
2021/10/05 10:39:43;;;;;;;22.87;17.60;;;14.80;96.30;;;;;;4955898;28;21055;-80
2021/10/05 10:42:09;;;;;;;24.80;18.17;;;14.80;96.30;;;;;;4955589;28;20450;-80
2021/10/05 10:44:41;;;;;;;21.03;18.00;;;14.90;96.30;;;;;;4956069;28;20415;-80
2021/10/05 10:47:18;;;;;;;23.23;14.03;;;15.00;96.30;;;;;;4956654;28;20414;-82
2021/10/05 10:50:06;;;;;;;12.80;9.77;;;15.20;96.30;;;;;;4960515;28;20433;-80
2021/10/05 10:52:37;;;;;;;18.03;9.03;;;15.00;96.30;;;;;;4962191;28;20470;-81
2021/10/05 10:55:06;;;;;;;9.00;8.10;;;14.70;96.30;;;;;;4963470;28;20871;-81
2021/10/05 10:57:37;;;;;;;9.73;7.90;;;14.60;96.30;;;;;;4962202;28;20410;-80
2021/10/05 11:00:20;;;;;;;11.73;8.90;;;14.40;96.30;;;;;;4961799;28;20918;-80
2021/10/05 11:02:53;;;;;;;9.67;8.20;;;14.30;96.30;;;;;;4959977;28;20569;-81
2021/10/05 11:05:24;;;;;;;10.20;7.13;;;14.20;96.30;;;;;;4959763;29;21030;-80
2021/10/05 11:07:57;;;;;;;7.40;6.77;;;13.90;96.30;;;;;;4961498;28;20418;-79
2021/10/05 11:10:25;;;;;;;9.83;6.70;;;13.80;96.30;;;;;;4958757;28;20901;-79
2021/10/05 11:12:53;;;;;;;9.70;6.10;;;13.50;96.30;;;;;;4956575;29;20569;-79
2021/10/05 11:15:30;;;;;;;7.53;5.30;;;13.20;96.30;;;;;;4956217;29;20414;-81
2021/10/05 11:18:03;;;;;;;7.30;5.33;;;13.10;96.30;;;;;;4957253;29;20406;-80
2021/10/05 11:20:28;;;;;;;7.00;5.80;;;13.00;96.30;;;;;;4958779;29;20434;-81
2021/10/05 11:22:54;;;;;;;5.80;5.30;;;12.90;96.30;;;;;;4958275;29;20422;-81
2021/10/05 11:25:19;;;;;;;5.80;5.23;;;12.80;96.30;;;;;;4958713;29;20175;-81
2021/10/05 11:27:45;;;;;;;6.63;5.93;;;12.90;96.30;;;;;;4973294;28;20182;-80
2021/10/05 11:30:11;;;;;;;9.30;5.63;;;12.90;96.30;;;;;;4959079;29;20175;-80
2021/10/05 11:32:36;;;;;;;9.30;7.07;;;12.90;96.30;;;;;;4957775;29;20198;-80
2021/10/05 11:35:02;;;;;;;6.87;6.17;;;13.00;96.30;;;;;;4957219;29;20183;-80
2021/10/05 11:37:28;;;;;;;6.50;5.87;;;13.10;96.30;;;;;;4959031;29;20179;-80
2021/10/05 11:39:55;;;;;;;6.67;6.07;;;13.10;96.30;;;;;;4957568;29;20414;-79
2021/10/05 11:42:23;;;;;;;6.50;5.90;;;13.30;96.30;;;;;;4957769;28;20690;-82
2021/10/05 11:44:55;;;;;;;7.50;5.83;;;13.50;96.30;;;;;;4959262;28;20406;-82
2021/10/05 11:47:23;;;;;;;7.00;6.30;;;13.80;96.30;;;;;;4959588;29;20413;-80
2021/10/05 11:50:03;;;;;;;13.90;5.87;;;13.80;96.30;;;;;;4959109;29;20418;-80
2021/10/05 11:52:30;;;;;;;6.80;5.40;;;13.80;96.30;;;;;;4958515;28;20556;-80
2021/10/05 11:54:56;;;;;;;10.80;4.80;;;13.70;96.30;;;;;;4958751;28;20417;-81
2021/10/05 11:57:26;;;;;;;6.30;5.53;;;13.60;96.30;;;;;;4957483;29;20425;-79
2021/10/05 11:59:52;;;;;;;4.87;4.47;;;13.50;96.30;;;;;;4956389;28;20441;-81
2021/10/05 12:02:20;;;;;;;5.50;4.57;;;13.30;96.30;;;;;;4956296;29;20489;-81
2021/10/05 12:04:51;;;;;;;3.80;3.50;;;13.00;96.30;;;;;;4958315;28;20422;-82
2021/10/05 12:07:21;;;;;;;4.00;3.60;;;12.80;96.30;;;;;;4957787;28;20454;-80
2021/10/05 12:10:07;;;;;;;3.97;3.60;;;12.60;96.30;;;;;;4956165;28;20453;-80
2021/10/05 12:12:35;;;;;;;4.40;3.90;;;12.60;96.30;;;;;;4955339;29;21011;-79
2021/10/05 12:15:08;;;;;;;4.40;4.00;;;12.70;96.30;;;;;;4956313;29;20451;-81
2021/10/05 12:17:34;;;;;;;4.03;3.50;;;12.80;96.30;;;;;;4957273;28;20403;-80
2021/10/05 12:20:18;;;;;;;4.80;4.20;;;12.80;96.30;;;;;;4956573;28;20419;-80
2021/10/05 12:22:47;;;;;;;7.47;3.80;;;12.70;96.30;;;;;;4954824;29;20421;-79
2021/10/05 12:25:22;;;;;;;4.60;4.20;;;12.70;96.30;;;;;;4956937;28;20419;-79
2021/10/05 12:27:51;;;;;;;8.63;3.97;;;12.60;96.30;;;;;;4956783;28;20541;-79
2021/10/05 12:30:23;;;;;;;3.50;3.20;;;12.60;96.30;;;;;;4956581;28;20911;-79
2021/10/05 12:33:00;;;;;;;2.37;2.17;;;12.60;96.30;;;;;;4954836;29;21017;-81
2021/10/05 12:35:32;;;;;;;4.90;2.97;;;12.50;96.30;;;;;;4956546;28;20415;-81
2021/10/05 12:38:11;;;;;;;3.30;3.00;;;12.40;96.30;;;;;;4956575;29;20406;-79
2021/10/05 12:40:57;;;;;;;3.50;3.20;;;12.40;96.30;;;;;;4956311;28;20466;-78
2021/10/05 12:43:35;;;;;;;4.17;3.70;;;12.50;96.30;;;;;;4956218;28;20750;-79
2021/10/05 12:46:05;;;;;;;3.33;3.03;;;12.50;96.30;;;;;;4956150;29;20411;-79
2021/10/05 12:48:38;;;;;;;3.90;3.13;;;12.70;96.30;;;;;;4954862;28;20477;-78
2021/10/05 12:51:11;;;;;;;3.40;3.10;;;12.80;96.30;;;;;;4955660;28;20514;-78
2021/10/05 12:53:37;;;;;;;3.30;2.97;;;12.90;96.30;;;;;;4954984;29;20498;-77
2021/10/05 12:56:04;;;;;;;3.00;2.70;;;13.00;96.30;;;;;;4954827;29;20418;-78
2021/10/05 12:58:30;;;;;;;3.97;3.47;;;13.20;96.30;;;;;;4954685;29;20414;-79
2021/10/05 13:00:55;;;;;;;3.23;2.93;;;13.30;96.30;;;;;;4955221;28;20590;-83
2021/10/05 13:03:21;;;;;;;3.10;2.80;;;13.40;96.30;;;;;;4955548;28;20575;-78
2021/10/05 13:05:47;;;;;;;3.33;2.77;;;13.70;96.30;;;;;;4955796;28;20174;-78
2021/10/05 13:08:12;;;;;;;4.00;3.27;;;14.00;96.30;;;;;;4955581;28;20191;-78
2021/10/05 13:10:38;;;;;;;4.67;2.87;;;14.10;96.30;;;;;;4953742;28;20202;-75
2021/10/05 13:13:03;;;;;;;3.00;2.77;;;14.30;96.30;;;;;;4954499;28;20270;-75
2021/10/05 13:15:30;;;;;;;2.80;2.60;;;14.30;96.30;;;;;;4946462;29;20640;-75
2021/10/05 13:17:56;;;;;;;3.37;3.07;;;14.30;96.30;;;;;;4954234;29;20187;-74
2021/10/05 13:20:22;;;;;;;4.13;2.73;;;14.20;96.30;;;;;;4955341;28;20470;-74
2021/10/05 13:22:48;;;;;;;3.30;3.00;;;14.50;96.30;;;;;;4954531;28;20179;-77
2021/10/05 13:25:14;;;;;;;3.07;2.60;;;15.00;96.30;;;;;;4955023;28;20807;-75
2021/10/05 13:27:39;;;;;;;2.30;2.20;;;15.70;96.30;;;;;;4955072;28;20183;-75
2021/10/05 13:30:08;;;;;;;5.30;2.80;;;15.80;96.30;;;;;;4955063;28;20179;-75
2021/10/05 13:32:34;;;;;;;2.53;2.33;;;16.00;96.30;;;;;;4954350;28;20234;-75
2021/10/05 13:35:02;;;;;;;4.43;3.57;;;15.80;96.30;;;;;;4954909;28;20411;-75
2021/10/05 13:37:28;;;;;;;3.00;2.80;;;15.60;96.30;;;;;;4954593;28;20419;-75
2021/10/05 13:39:53;;;;;;;4.60;2.60;;;15.30;96.30;;;;;;4953471;28;20423;-75
2021/10/05 13:42:19;;;;;;;2.70;2.50;;;15.10;96.30;;;;;;4952994;28;20198;-77
2021/10/05 13:44:44;;;;;;;5.33;3.37;;;14.90;96.30;;;;;;4955461;28;20207;-75
2021/10/05 13:47:10;;;;;;;2.93;2.73;;;14.80;96.30;;;;;;4954867;28;20542;-74
2021/10/05 13:49:35;;;;;;;3.33;2.50;;;14.80;96.30;;;;;;4954767;28;20199;-75
2021/10/05 13:52:01;;;;;;;2.70;2.50;;;14.80;96.30;;;;;;4985020;28;20226;-76
2021/10/05 13:54:26;;;;;;;2.80;2.60;;;14.90;96.30;;;;;;4954827;28;20686;-75
2021/10/05 13:56:52;;;;;;;3.10;2.90;;;15.00;96.30;;;;;;4954765;28;20233;-75
2021/10/05 13:59:17;;;;;;;3.33;3.03;;;15.00;96.30;;;;;;4954605;28;20179;-75
2021/10/05 14:01:43;;;;;;;3.37;2.80;;;15.20;96.30;;;;;;4953858;28;20222;-75
2021/10/05 14:04:08;;;;;;;2.83;2.63;;;15.20;96.30;;;;;;4955711;28;20183;-74
2021/10/05 14:06:34;;;;;;;3.37;3.07;;;15.20;96.30;;;;;;4954627;28;20242;-75
2021/10/05 14:08:59;;;;;;;2.77;2.57;;;15.20;96.30;;;;;;4953166;29;20179;-75
2021/10/05 14:11:25;;;;;;;2.77;2.57;;;15.10;96.30;;;;;;4954269;28;20258;-75
2021/10/05 14:13:53;;;;;;;2.77;2.57;;;15.00;96.30;;;;;;4954936;28;20258;-76
2021/10/05 14:16:19;;;;;;;2.80;2.60;;;14.90;96.30;;;;;;4953933;28;20545;-75
2021/10/05 14:18:45;;;;;;;9.83;2.97;;;14.80;96.30;;;;;;4954795;28;20415;-75
2021/10/05 14:21:16;;;;;;;3.40;3.10;;;14.60;96.30;;;;;;4953452;28;20198;-76
2021/10/05 14:23:42;;;;;;;3.47;3.10;;;14.50;96.30;;;;;;4954278;28;20908;-75
2021/10/05 14:26:07;;;;;;;3.83;3.50;;;14.40;96.30;;;;;;4954631;28;20402;-75
2021/10/05 14:28:33;;;;;;;2.87;2.63;;;14.20;96.30;;;;;;4954431;28;20229;-75
2021/10/05 14:30:58;;;;;;;3.47;3.13;;;14.10;96.30;;;;;;4952483;28;20642;-77
2021/10/05 14:33:25;;;;;;;2.87;2.67;;;14.10;96.30;;;;;;4954190;28;20243;-75
2021/10/05 14:35:50;;;;;;;3.93;3.27;;;14.10;96.30;;;;;;4954619;28;20760;-75
2021/10/05 14:38:16;;;;;;;3.70;3.40;;;14.00;96.30;;;;;;4954620;28;20242;-75
2021/10/05 14:40:41;;;;;;;3.80;3.27;;;13.90;96.30;;;;;;4954541;28;20197;-75
2021/10/05 14:43:07;;;;;;;3.50;3.20;;;13.90;96.30;;;;;;4952522;28;20205;-75
2021/10/05 14:45:33;;;;;;;5.43;3.40;;;14.00;96.30;;;;;;4954149;28;20687;-75
2021/10/05 14:47:59;;;;;;;5.20;3.80;;;14.00;96.30;;;;;;4955380;28;20179;-74
2021/10/05 14:50:26;;;;;;;3.70;3.40;;;14.00;96.30;;;;;;4955427;28;20430;-75
2021/10/05 14:52:52;;;;;;;3.60;3.27;;;13.90;96.30;;;;;;4955027;28;20361;-75
2021/10/05 14:55:17;;;;;;;3.63;3.17;;;13.90;96.30;;;;;;4954546;28;20457;-76
2021/10/05 14:57:43;;;;;;;3.70;3.40;;;13.80;96.30;;;;;;4956195;28;20624;-75
2021/10/05 15:00:09;;;;;;;3.57;3.27;;;13.60;96.30;;;;;;4955311;28;20254;-75
2021/10/05 15:02:38;;;;;;;6.87;3.63;;;13.60;96.30;;;;;;4955062;28;20215;-74
2021/10/05 15:05:12;;;;;;;5.23;4.20;;;13.50;96.30;;;;;;4955418;29;20533;-75
2021/10/05 15:07:39;;;;;;;4.30;3.70;;;13.40;96.30;;;;;;4955325;28;20424;-75
2021/10/05 15:10:07;;;;;;;4.50;4.10;;;13.30;96.30;;;;;;4954623;29;20426;-75
2021/10/05 15:12:33;;;;;;;4.37;3.40;;;13.30;96.30;;;;;;4966970;28;20535;-75
2021/10/05 15:15:02;;;;;;;6.47;4.40;;;13.20;96.30;;;;;;4975143;28;20406;-75
2021/10/05 15:17:28;;;;;;;5.50;5.00;;;13.30;96.30;;;;;;4973634;28;20187;-74
2021/10/05 15:19:54;;;;;;;4.63;4.27;;;13.50;96.30;;;;;;4973321;28;20484;-74
2021/10/05 15:22:19;;;;;;;5.70;4.93;;;13.70;96.30;;;;;;4950999;28;20446;-75
2021/10/05 15:24:45;;;;;;;4.90;4.30;;;13.80;96.30;;;;;;4954552;28;20298;-77
2021/10/05 15:27:10;;;;;;;7.60;5.07;;;13.80;96.30;;;;;;4953589;28;20191;-77
2021/10/05 15:29:36;;;;;;;5.87;5.37;;;13.80;96.30;;;;;;4936225;28;20226;-77
2021/10/05 15:32:01;;;;;;;8.00;5.17;;;13.70;96.30;;;;;;4958889;28;20633;-76
2021/10/05 15:34:27;;;;;;;6.20;4.50;;;13.50;96.30;;;;;;4971515;28;20568;-77
2021/10/05 15:36:52;;;;;;;5.30;4.80;;;13.40;96.30;;;;;;4975921;28;20174;-76
2021/10/05 15:39:18;;;;;;;5.13;4.23;;;13.30;96.30;;;;;;4975775;28;20570;-76
2021/10/05 15:41:44;;;;;;;8.87;5.00;;;13.20;96.30;;;;;;4958573;28;20240;-76
2021/10/05 15:44:10;;;;;;;8.90;4.63;;;13.20;96.30;;;;;;4975561;28;20182;-76
2021/10/05 15:46:36;;;;;;;8.67;5.00;;;13.20;96.30;;;;;;4975276;28;20426;-76
2021/10/05 15:49:04;;;;;;;4.97;4.47;;;13.10;96.30;;;;;;4975585;28;20661;-76
2021/10/05 15:51:51;;;;;;;5.17;4.50;;;13.00;96.30;;;;;;4974760;28;20441;-76
2021/10/05 15:54:17;;;;;;;8.37;5.23;;;13.00;96.30;;;;;;4954496;28;20447;-77
2021/10/05 15:56:42;;;;;;;6.47;5.10;;;12.90;96.30;;;;;;4971278;28;20436;-76
2021/10/05 15:59:09;;;;;;;4.83;4.33;;;12.90;96.30;;;;;;4953193;28;20804;-77
2021/10/05 16:01:35;;;;;;;5.97;4.57;;;12.90;96.30;;;;;;4955262;28;20222;-76
2021/10/05 16:04:01;;;;;;;4.77;4.37;;;12.90;96.30;;;;;;4955849;28;20417;-77
2021/10/05 16:06:28;;;;;;;4.77;3.90;;;12.90;96.30;;;;;;4955426;28;20183;-76
2021/10/05 16:08:55;;;;;;;6.70;3.73;;;12.80;96.30;;;;;;4953619;28;20433;-76
2021/10/05 16:11:20;;;;;;;3.97;3.67;;;12.80;96.30;;;;;;4936101;28;20447;-76
2021/10/05 16:13:46;;;;;;;4.57;4.13;;;12.80;96.30;;;;;;4936699;29;20176;-77
2021/10/05 16:16:12;;;;;;;3.93;3.47;;;12.70;96.30;;;;;;4936849;29;20175;-77
2021/10/05 16:18:38;;;;;;;2.93;2.73;;;12.60;96.30;;;;;;4935851;29;20175;-80
2021/10/05 16:21:05;;;;;;;4.70;3.60;;;12.50;96.30;;;;;;4935117;29;20196;-81
2021/10/05 16:23:32;;;;;;;4.57;4.17;;;12.50;96.30;;;;;;4946523;29;20469;-79
2021/10/05 16:25:58;;;;;;;3.50;3.00;;;12.50;96.30;;;;;;4961650;28;20437;-79
2021/10/05 16:28:24;;;;;;;3.80;3.43;;;12.40;96.30;;;;;;4946549;28;20459;-78
2021/10/05 16:30:50;;;;;;;4.60;3.40;;;12.40;96.30;;;;;;4936290;29;20435;-78
2021/10/05 16:33:16;;;;;;;4.00;3.70;;;12.30;96.30;;;;;;4938362;29;20309;-79
2021/10/05 16:35:42;;;;;;;3.20;2.90;;;12.30;96.30;;;;;;4955529;29;20481;-78
2021/10/05 16:38:08;;;;;;;3.60;3.30;;;12.20;96.30;;;;;;4954347;29;20635;-78
2021/10/05 16:40:34;;;;;;;3.23;2.63;;;12.20;96.30;;;;;;4955486;28;20414;-78
2021/10/05 16:42:59;;;;;;;2.60;2.40;;;12.10;96.30;;;;;;4954483;29;20410;-77